sensor_id;sensor_type;location;lat;lon;timestamp;pressure;altitude;pressure_sealevel;temperature;humidity
16331;BME280;8275;48.206;16.340;2022-08-19T00:01:57;98426.41;;;29.22;33.77
16331;BME280;8275;48.206;16.340;2022-08-19T00:04:31;98429.63;;;29.17;33.83
16331;BME280;8275;48.206;16.340;2022-08-19T00:07:03;98434.44;;;29.16;34.12
16331;BME280;8275;48.206;16.340;2022-08-19T00:09:31;98430.00;;;29.12;34.39
16331;BME280;8275;48.206;16.340;2022-08-19T00:12:01;98440.06;;;29.09;34.81
16331;BME280;8275;48.206;16.340;2022-08-19T00:14:30;98432.41;;;29.06;35.12
16331;BME280;8275;48.206;16.340;2022-08-19T00:16:59;98420.72;;;29.01;35.17
16331;BME280;8275;48.206;16.340;2022-08-19T00:19:29;98413.00;;;28.94;35.38
16331;BME280;8275;48.206;16.340;2022-08-19T00:21:58;98423.06;;;28.92;35.40
16331;BME280;8275;48.206;16.340;2022-08-19T00:24:27;98429.91;;;28.87;35.56
16331;BME280;8275;48.206;16.340;2022-08-19T00:26:56;98429.09;;;28.83;35.66
16331;BME280;8275;48.206;16.340;2022-08-19T00:29:44;98433.50;;;28.77;35.96
16331;BME280;8275;48.206;16.340;2022-08-19T00:32:18;98428.25;;;28.72;36.02
16331;BME280;8275;48.206;16.340;2022-08-19T00:34:48;98425.81;;;28.67;36.36
16331;BME280;8275;48.206;16.340;2022-08-19T00:37:19;98420.97;;;28.64;36.38
16331;BME280;8275;48.206;16.340;2022-08-19T00:39:50;98417.31;;;28.60;36.77
16331;BME280;8275;48.206;16.340;2022-08-19T00:42:21;98414.47;;;28.57;36.38
16331;BME280;8275;48.206;16.340;2022-08-19T00:44:50;98413.66;;;28.52;36.70
16331;BME280;8275;48.206;16.340;2022-08-19T00:47:19;98420.06;;;28.49;36.56
16331;BME280;8275;48.206;16.340;2022-08-19T00:49:53;98419.63;;;28.44;37.14
16331;BME280;8275;48.206;16.340;2022-08-19T00:52:27;98428.06;;;28.40;37.24
16331;BME280;8275;48.206;16.340;2022-08-19T00:54:58;98434.50;;;28.37;36.93
16331;BME280;8275;48.206;16.340;2022-08-19T00:57:30;98426.03;;;28.34;37.25
16331;BME280;8275;48.206;16.340;2022-08-19T01:00:03;98417.16;;;28.32;37.07
16331;BME280;8275;48.206;16.340;2022-08-19T01:02:33;98422.00;;;28.31;37.52
16331;BME280;8275;48.206;16.340;2022-08-19T01:05:08;98410.69;;;28.28;37.91
16331;BME280;8275;48.206;16.340;2022-08-19T01:07:39;98405.06;;;28.28;38.11
16331;BME280;8275;48.206;16.340;2022-08-19T01:10:11;98411.09;;;28.26;38.04
16331;BME280;8275;48.206;16.340;2022-08-19T01:12:41;98408.28;;;28.26;38.16
16331;BME280;8275;48.206;16.340;2022-08-19T01:15:13;98421.13;;;28.24;37.76
16331;BME280;8275;48.206;16.340;2022-08-19T01:17:43;98420.72;;;28.22;38.11
16331;BME280;8275;48.206;16.340;2022-08-19T01:20:23;98405.41;;;28.19;37.62
16331;BME280;8275;48.206;16.340;2022-08-19T01:22:55;98412.25;;;28.18;37.63
16331;BME280;8275;48.206;16.340;2022-08-19T01:25:33;98417.47;;;28.16;38.12
16331;BME280;8275;48.206;16.340;2022-08-19T01:28:05;98421.91;;;28.17;37.97
16331;BME280;8275;48.206;16.340;2022-08-19T01:30:37;98421.50;;;28.15;37.65
16331;BME280;8275;48.206;16.340;2022-08-19T01:33:10;98423.50;;;28.15;38.14
16331;BME280;8275;48.206;16.340;2022-08-19T01:35:43;98422.69;;;28.14;37.75
16331;BME280;8275;48.206;16.340;2022-08-19T01:38:23;98431.53;;;28.13;37.49
16331;BME280;8275;48.206;16.340;2022-08-19T01:40:53;98426.31;;;28.15;37.63
16331;BME280;8275;48.206;16.340;2022-08-19T01:43:22;98437.19;;;28.16;37.88
16331;BME280;8275;48.206;16.340;2022-08-19T01:45:50;98439.19;;;28.16;37.59
16331;BME280;8275;48.206;16.340;2022-08-19T01:48:19;98443.63;;;28.17;37.92
16331;BME280;8275;48.206;16.340;2022-08-19T01:50:49;98446.44;;;28.17;37.67
16331;BME280;8275;48.206;16.340;2022-08-19T01:53:18;98438.41;;;28.15;37.54
16331;BME280;8275;48.206;16.340;2022-08-19T01:55:49;98438.00;;;28.17;38.02
16331;BME280;8275;48.206;16.340;2022-08-19T01:58:22;98442.00;;;28.16;37.59
16331;BME280;8275;48.206;16.340;2022-08-19T02:00:52;98452.06;;;28.17;37.84
16331;BME280;8275;48.206;16.340;2022-08-19T02:03:21;98461.34;;;28.17;37.94
16331;BME280;8275;48.206;16.340;2022-08-19T02:05:55;98475.00;;;28.15;38.02
16331;BME280;8275;48.206;16.340;2022-08-19T02:08:27;98479.41;;;28.16;37.97
16331;BME280;8275;48.206;16.340;2022-08-19T02:10:56;98475.78;;;28.16;37.57
16331;BME280;8275;48.206;16.340;2022-08-19T02:13:27;98476.59;;;28.13;38.12
16331;BME280;8275;48.206;16.340;2022-08-19T02:15:56;98470.16;;;28.16;37.75
16331;BME280;8275;48.206;16.340;2022-08-19T02:18:26;98475.00;;;28.15;37.92
16331;BME280;8275;48.206;16.340;2022-08-19T02:20:54;98478.59;;;28.16;38.29
16331;BME280;8275;48.206;16.340;2022-08-19T02:23:23;98469.75;;;28.14;37.66
16331;BME280;8275;48.206;16.340;2022-08-19T02:25:53;98458.47;;;28.14;38.08
16331;BME280;8275;48.206;16.340;2022-08-19T02:28:21;98454.47;;;28.15;37.51
16331;BME280;8275;48.206;16.340;2022-08-19T02:30:50;98466.16;;;28.17;37.51
16331;BME280;8275;48.206;16.340;2022-08-19T02:33:18;98476.66;;;28.20;37.98
16331;BME280;8275;48.206;16.340;2022-08-19T02:35:47;98465.78;;;28.22;37.73
16331;BME280;8275;48.206;16.340;2022-08-19T02:38:15;98447.31;;;28.24;38.09
16331;BME280;8275;48.206;16.340;2022-08-19T02:40:57;98456.94;;;28.23;38.33
16331;BME280;8275;48.206;16.340;2022-08-19T02:43:28;98458.97;;;28.26;38.62
16331;BME280;8275;48.206;16.340;2022-08-19T02:46:01;98454.94;;;28.27;38.50
16331;BME280;8275;48.206;16.340;2022-08-19T02:48:30;98454.94;;;28.27;38.73
16331;BME280;8275;48.206;16.340;2022-08-19T02:51:00;98449.31;;;28.27;38.84
16331;BME280;8275;48.206;16.340;2022-08-19T02:53:29;98440.88;;;28.27;39.05
16331;BME280;8275;48.206;16.340;2022-08-19T02:55:58;98447.72;;;28.26;39.04
16331;BME280;8275;48.206;16.340;2022-08-19T02:58:27;98448.13;;;28.28;39.24
16331;BME280;8275;48.206;16.340;2022-08-19T03:00:56;98452.13;;;28.27;39.24
16331;BME280;8275;48.206;16.340;2022-08-19T03:03:25;98453.75;;;28.28;40.10
16331;BME280;8275;48.206;16.340;2022-08-19T03:06:05;98447.72;;;28.26;39.32
16331;BME280;8275;48.206;16.340;2022-08-19T03:08:34;98453.75;;;28.28;39.04
16331;BME280;8275;48.206;16.340;2022-08-19T03:11:05;98467.03;;;28.28;39.09
16331;BME280;8275;48.206;16.340;2022-08-19T03:13:34;98463.03;;;28.29;39.19
16331;BME280;8275;48.206;16.340;2022-08-19T03:16:05;98458.22;;;28.29;38.73
16331;BME280;8275;48.206;16.340;2022-08-19T03:18:33;98462.22;;;28.32;38.84
16331;BME280;8275;48.206;16.340;2022-08-19T03:21:02;98468.66;;;28.32;39.11
16331;BME280;8275;48.206;16.340;2022-08-19T03:23:31;98470.28;;;28.33;38.54
16331;BME280;8275;48.206;16.340;2022-08-19T03:26:05;98463.84;;;28.33;38.60
16331;BME280;8275;48.206;16.340;2022-08-19T03:28:44;98469.06;;;28.34;38.47
16331;BME280;8275;48.206;16.340;2022-08-19T03:31:26;98471.13;;;28.34;38.82
16331;BME280;8275;48.206;16.340;2022-08-19T03:34:19;98496.47;;;28.34;38.70
16331;BME280;8275;48.206;16.340;2022-08-19T03:36:48;98495.66;;;28.33;38.85
16331;BME280;8275;48.206;16.340;2022-08-19T03:39:16;98500.09;;;28.38;38.47
16331;BME280;8275;48.206;16.340;2022-08-19T03:41:48;98502.50;;;28.36;38.96
16331;BME280;8275;48.206;16.340;2022-08-19T03:44:38;98496.47;;;28.34;39.09
16331;BME280;8275;48.206;16.340;2022-08-19T03:47:06;98506.50;;;28.31;38.63
16331;BME280;8275;48.206;16.340;2022-08-19T03:49:35;98515.72;;;28.28;39.21
16331;BME280;8275;48.206;16.340;2022-08-19T03:52:04;98517.72;;;28.28;38.72
16331;BME280;8275;48.206;16.340;2022-08-19T03:54:36;98520.53;;;28.24;39.13
16331;BME280;8275;48.206;16.340;2022-08-19T03:57:06;98524.13;;;28.21;39.39
16331;BME280;8275;48.206;16.340;2022-08-19T03:59:37;98522.91;;;28.19;38.99
16331;BME280;8275;48.206;16.340;2022-08-19T04:02:10;98516.84;;;28.17;39.09
16331;BME280;8275;48.206;16.340;2022-08-19T04:04:42;98522.88;;;28.15;39.57
16331;BME280;8275;48.206;16.340;2022-08-19T04:07:13;98532.53;;;28.14;39.66
16331;BME280;8275;48.206;16.340;2022-08-19T04:09:43;98534.09;;;28.12;39.75
16331;BME280;8275;48.206;16.340;2022-08-19T04:12:13;98533.69;;;28.10;39.31
16331;BME280;8275;48.206;16.340;2022-08-19T04:14:42;98543.34;;;28.09;39.64
16331;BME280;8275;48.206;16.340;2022-08-19T04:17:11;98540.53;;;28.09;39.54
16331;BME280;8275;48.206;16.340;2022-08-19T04:19:40;98541.31;;;28.09;39.55
16331;BME280;8275;48.206;16.340;2022-08-19T04:22:10;98542.56;;;28.12;39.36
16331;BME280;8275;48.206;16.340;2022-08-19T04:24:39;98540.16;;;28.14;39.66
16331;BME280;8275;48.206;16.340;2022-08-19T04:27:07;98548.66;;;28.17;39.67
16331;BME280;8275;48.206;16.340;2022-08-19T04:29:37;98549.47;;;28.21;39.46
16331;BME280;8275;48.206;16.340;2022-08-19T04:32:07;98553.13;;;28.25;39.82
16331;BME280;8275;48.206;16.340;2022-08-19T04:34:36;98540.69;;;28.30;39.44
16331;BME280;8275;48.206;16.340;2022-08-19T04:37:26;98561.69;;;28.36;39.34
16331;BME280;8275;48.206;16.340;2022-08-19T04:40:05;98570.13;;;28.39;39.82
16331;BME280;8275;48.206;16.340;2022-08-19T04:42:51;98573.41;;;28.45;39.62
16331;BME280;8275;48.206;16.340;2022-08-19T04:45:22;98566.97;;;28.48;39.73
16331;BME280;8275;48.206;16.340;2022-08-19T04:47:55;98569.44;;;28.53;39.80
16331;BME280;8275;48.206;16.340;2022-08-19T04:50:44;98574.34;;;28.60;39.38
16331;BME280;8275;48.206;16.340;2022-08-19T04:53:12;98577.19;;;28.63;39.68
16331;BME280;8275;48.206;16.340;2022-08-19T04:55:42;98583.66;;;28.67;39.53
16331;BME280;8275;48.206;16.340;2022-08-19T04:58:10;98583.69;;;28.71;39.29
16331;BME280;8275;48.206;16.340;2022-08-19T05:00:40;98570.81;;;28.73;39.72
16331;BME280;8275;48.206;16.340;2022-08-19T05:03:09;98570.06;;;28.80;39.65
16331;BME280;8275;48.206;16.340;2022-08-19T05:05:41;98573.28;;;28.82;39.56
16331;BME280;8275;48.206;16.340;2022-08-19T05:08:12;98572.09;;;28.86;39.30
16331;BME280;8275;48.206;16.340;2022-08-19T05:10:42;98580.56;;;28.90;39.63
16331;BME280;8275;48.206;16.340;2022-08-19T05:13:11;98581.41;;;28.94;39.59
16331;BME280;8275;48.206;16.340;2022-08-19T05:15:44;98580.22;;;28.98;39.79
16331;BME280;8275;48.206;16.340;2022-08-19T05:18:25;98582.25;;;29.01;40.03
16331;BME280;8275;48.206;16.340;2022-08-19T05:21:15;98579.47;;;29.05;40.13
16331;BME280;8275;48.206;16.340;2022-08-19T05:24:02;98598.03;;;29.09;40.18
16331;BME280;8275;48.206;16.340;2022-08-19T05:26:33;98596.00;;;29.13;40.17
16331;BME280;8275;48.206;16.340;2022-08-19T05:29:02;98606.16;;;29.18;40.39
16331;BME280;8275;48.206;16.340;2022-08-19T05:31:33;98609.38;;;29.20;40.40
16331;BME280;8275;48.206;16.340;2022-08-19T05:34:08;98609.00;;;29.22;40.40
16331;BME280;8275;48.206;16.340;2022-08-19T05:36:46;98611.81;;;29.22;40.26
16331;BME280;8275;48.206;16.340;2022-08-19T05:39:17;98614.19;;;29.19;40.51
16331;BME280;8275;48.206;16.340;2022-08-19T05:41:50;98625.88;;;29.18;40.18
16331;BME280;8275;48.206;16.340;2022-08-19T05:44:20;98636.78;;;29.19;40.61
16331;BME280;8275;48.206;16.340;2022-08-19T05:46:52;98644.03;;;29.21;40.51
16331;BME280;8275;48.206;16.340;2022-08-19T05:49:22;98643.22;;;29.20;40.34
16331;BME280;8275;48.206;16.340;2022-08-19T05:51:53;98654.91;;;29.22;40.84
16331;BME280;8275;48.206;16.340;2022-08-19T05:54:23;98657.34;;;29.20;41.02
16331;BME280;8275;48.206;16.340;2022-08-19T05:56:53;98655.28;;;29.17;40.56
16331;BME280;8275;48.206;16.340;2022-08-19T05:59:21;98667.00;;;29.19;40.56
16331;BME280;8275;48.206;16.340;2022-08-19T06:01:53;98664.56;;;29.17;40.62
16331;BME280;8275;48.206;16.340;2022-08-19T06:04:23;98660.56;;;29.18;40.93
16331;BME280;8275;48.206;16.340;2022-08-19T06:06:53;98673.06;;;29.21;40.62
16331;BME280;8275;48.206;16.340;2022-08-19T06:09:22;98674.66;;;29.22;40.66
16331;BME280;8275;48.206;16.340;2022-08-19T06:11:55;98681.94;;;29.23;40.68
16331;BME280;8275;48.206;16.340;2022-08-19T06:14:30;98684.41;;;29.28;40.62
16331;BME280;8275;48.206;16.340;2022-08-19T06:17:01;98688.88;;;29.36;40.33
16331;BME280;8275;48.206;16.340;2022-08-19T06:19:33;98679.63;;;29.43;40.38
16331;BME280;8275;48.206;16.340;2022-08-19T06:22:07;98684.50;;;29.49;40.48
16331;BME280;8275;48.206;16.340;2022-08-19T06:24:36;98679.69;;;29.57;40.25
16331;BME280;8275;48.206;16.340;2022-08-19T06:27:05;98673.25;;;29.63;39.95
16331;BME280;8275;48.206;16.340;2022-08-19T06:29:34;98673.28;;;29.70;39.98
16331;BME280;8275;48.206;16.340;2022-08-19T06:32:05;98663.22;;;29.73;39.97
16331;BME280;8275;48.206;16.340;2022-08-19T06:34:34;98668.94;;;29.76;39.84
16331;BME280;8275;48.206;16.340;2022-08-19T06:37:03;98666.91;;;29.80;39.74
16331;BME280;8275;48.206;16.340;2022-08-19T06:39:35;98663.31;;;29.87;39.76
16331;BME280;8275;48.206;16.340;2022-08-19T06:42:06;98668.59;;;29.99;39.55
16331;BME280;8275;48.206;16.340;2022-08-19T06:44:39;98685.59;;;30.13;39.49
16331;BME280;8275;48.206;16.340;2022-08-19T06:47:14;98684.81;;;30.27;39.42
16331;BME280;8275;48.206;16.340;2022-08-19T06:49:55;98676.75;;;30.46;39.08
16331;BME280;8275;48.206;16.340;2022-08-19T06:52:29;98687.28;;;30.60;39.02
16331;BME280;8275;48.206;16.340;2022-08-19T06:55:01;98683.63;;;30.74;38.79
16331;BME280;8275;48.206;16.340;2022-08-19T06:57:33;98678.00;;;30.84;38.59
16331;BME280;8275;48.206;16.340;2022-08-19T07:00:03;98664.69;;;30.92;38.58
16331;BME280;8275;48.206;16.340;2022-08-19T07:02:40;98658.59;;;31.04;38.35
16331;BME280;8275;48.206;16.340;2022-08-19T07:05:19;98663.81;;;31.16;38.18
16331;BME280;8275;48.206;16.340;2022-08-19T07:07:48;98670.25;;;31.27;38.16
16331;BME280;8275;48.206;16.340;2022-08-19T07:10:17;98675.09;;;31.37;37.96
16331;BME280;8275;48.206;16.340;2022-08-19T07:12:46;98664.19;;;31.46;37.70
16331;BME280;8275;48.206;16.340;2022-08-19T07:15:17;98654.03;;;31.52;37.60
16331;BME280;8275;48.206;16.340;2022-08-19T07:17:49;98647.97;;;31.54;37.41
16331;BME280;8275;48.206;16.340;2022-08-19T07:20:19;98637.44;;;31.58;37.35
16331;BME280;8275;48.206;16.340;2022-08-19T07:22:55;98645.47;;;31.66;37.43
16331;BME280;8275;48.206;16.340;2022-08-19T07:25:23;98637.72;;;31.77;37.05
16331;BME280;8275;48.206;16.340;2022-08-19T07:27:59;98649.41;;;31.90;37.00
16331;BME280;8275;48.206;16.340;2022-08-19T07:30:28;98639.28;;;32.00;36.25
16331;BME280;8275;48.206;16.340;2022-08-19T07:32:59;98631.94;;;32.09;36.32
16331;BME280;8275;48.206;16.340;2022-08-19T07:35:29;98626.63;;;32.15;35.84
16331;BME280;8275;48.206;16.340;2022-08-19T07:38:00;98622.53;;;32.19;35.33
16331;BME280;8275;48.206;16.340;2022-08-19T07:40:31;98628.59;;;32.25;34.82
16331;BME280;8275;48.206;16.340;2022-08-19T07:42:59;98619.59;;;32.33;34.55
16331;BME280;8275;48.206;16.340;2022-08-19T07:45:29;98619.53;;;32.40;34.67
16331;BME280;8275;48.206;16.340;2022-08-19T07:48:00;98604.47;;;32.54;34.79
16331;BME280;8275;48.206;16.340;2022-08-19T07:50:30;98586.50;;;32.71;34.59
16331;BME280;8275;48.206;16.340;2022-08-19T07:52:59;98585.53;;;32.85;33.69
16331;BME280;8275;48.206;16.340;2022-08-19T07:55:27;98585.41;;;32.95;34.00
16331;BME280;8275;48.206;16.340;2022-08-19T07:58:10;98579.25;;;33.07;33.42
16331;BME280;8275;48.206;16.340;2022-08-19T08:00:39;98592.84;;;33.23;33.23
16331;BME280;8275;48.206;16.340;2022-08-19T08:03:10;98599.91;;;33.42;33.50
16331;BME280;8275;48.206;16.340;2022-08-19T08:05:40;98601.78;;;33.59;32.86
16331;BME280;8275;48.206;16.340;2022-08-19T08:08:26;98611.69;;;33.74;32.66
16331;BME280;8275;48.206;16.340;2022-08-19T08:11:16;98610.41;;;33.78;31.92
16331;BME280;8275;48.206;16.340;2022-08-19T08:13:47;98619.28;;;33.84;31.65
16331;BME280;8275;48.206;16.340;2022-08-19T08:16:32;98613.00;;;33.96;31.89
16331;BME280;8275;48.206;16.340;2022-08-19T08:19:15;98610.75;;;34.14;31.28
16331;BME280;8275;48.206;16.340;2022-08-19T08:21:52;98620.22;;;34.31;31.61
16331;BME280;8275;48.206;16.340;2022-08-19T08:24:22;98630.97;;;34.46;31.21
16331;BME280;8275;48.206;16.340;2022-08-19T08:26:55;98635.19;;;34.62;31.00
16331;BME280;8275;48.206;16.340;2022-08-19T08:29:26;98636.19;;;34.75;30.51
16331;BME280;8275;48.206;16.340;2022-08-19T08:32:02;98636.88;;;34.82;29.92
16331;BME280;8275;48.206;16.340;2022-08-19T08:34:41;98639.09;;;34.94;29.75
16331;BME280;8275;48.206;16.340;2022-08-19T08:37:10;98638.09;;;35.04;30.00
16331;BME280;8275;48.206;16.340;2022-08-19T08:39:42;98643.19;;;35.16;29.58
16331;BME280;8275;48.206;16.340;2022-08-19T08:42:19;98655.16;;;35.27;29.75
16331;BME280;8275;48.206;16.340;2022-08-19T08:44:54;98648.03;;;35.39;29.68
16331;BME280;8275;48.206;16.340;2022-08-19T08:47:34;98655.16;;;35.51;29.37
16331;BME280;8275;48.206;16.340;2022-08-19T08:50:17;98655.66;;;35.65;29.28
16331;BME280;8275;48.206;16.340;2022-08-19T08:52:50;98659.03;;;35.80;29.61
16331;BME280;8275;48.206;16.340;2022-08-19T08:59:33;98674.34;;;36.06;28.91
16331;BME280;8275;48.206;16.340;2022-08-19T09:02:03;98657.09;;;36.13;28.67
16331;BME280;8275;48.206;16.340;2022-08-19T09:04:31;98659.88;;;36.16;28.28
16331;BME280;8275;48.206;16.340;2022-08-19T09:07:26;98650.06;;;36.17;28.59
16331;BME280;8275;48.206;16.340;2022-08-19T09:10:10;98653.56;;;36.25;28.37
16331;BME280;8275;48.206;16.340;2022-08-19T09:12:59;98645.44;;;36.23;27.78
16331;BME280;8275;48.206;16.340;2022-08-19T09:15:40;98635.09;;;36.29;27.61
16331;BME280;8275;48.206;16.340;2022-08-19T09:18:13;98633.34;;;36.35;27.38
16331;BME280;8275;48.206;16.340;2022-08-19T09:20:46;98627.66;;;36.35;27.34
16331;BME280;8275;48.206;16.340;2022-08-19T09:23:16;98629.22;;;36.36;27.26
16331;BME280;8275;48.206;16.340;2022-08-19T09:25:53;98623.00;;;36.41;27.37
16331;BME280;8275;48.206;16.340;2022-08-19T09:28:21;98615.59;;;36.44;27.21
16331;BME280;8275;48.206;16.340;2022-08-19T09:30:53;98605.06;;;36.41;27.17
16331;BME280;8275;48.206;16.340;2022-08-19T09:33:21;98597.69;;;36.43;26.93
16331;BME280;8275;48.206;16.340;2022-08-19T09:35:50;98603.69;;;36.49;26.82
16331;BME280;8275;48.206;16.340;2022-08-19T09:38:37;98591.66;;;36.57;27.19
16331;BME280;8275;48.206;16.340;2022-08-19T09:41:12;98590.59;;;36.68;26.93
16331;BME280;8275;48.206;16.340;2022-08-19T09:43:44;98589.84;;;36.80;26.58
16331;BME280;8275;48.206;16.340;2022-08-19T09:46:14;98597.84;;;36.85;26.60
16331;BME280;8275;48.206;16.340;2022-08-19T09:48:45;98602.34;;;36.86;26.57
16331;BME280;8275;48.206;16.340;2022-08-19T09:51:18;98605.19;;;36.86;26.48
16331;BME280;8275;48.206;16.340;2022-08-19T09:53:51;98609.19;;;36.88;26.76
16331;BME280;8275;48.206;16.340;2022-08-19T09:56:22;98611.91;;;36.95;26.61
16331;BME280;8275;48.206;16.340;2022-08-19T09:58:51;98606.97;;;36.96;26.65
16331;BME280;8275;48.206;16.340;2022-08-19T10:01:23;98604.72;;;36.87;26.56
16331;BME280;8275;48.206;16.340;2022-08-19T10:03:55;98607.88;;;36.93;26.55
16331;BME280;8275;48.206;16.340;2022-08-19T10:06:28;98600.25;;;37.02;26.35
16331;BME280;8275;48.206;16.340;2022-08-19T10:09:15;98589.09;;;37.08;26.28
16331;BME280;8275;48.206;16.340;2022-08-19T10:12:00;98598.63;;;37.17;26.32
16331;BME280;8275;48.206;16.340;2022-08-19T10:14:29;98596.63;;;37.30;26.44
16331;BME280;8275;48.206;16.340;2022-08-19T10:16:58;98593.50;;;37.41;26.15
16331;BME280;8275;48.206;16.340;2022-08-19T10:19:44;98601.06;;;37.48;25.87
16331;BME280;8275;48.206;16.340;2022-08-19T10:22:22;98604.25;;;37.50;25.93
16331;BME280;8275;48.206;16.340;2022-08-19T10:24:53;98601.06;;;37.48;25.63
16331;BME280;8275;48.206;16.340;2022-08-19T10:27:22;98603.09;;;37.47;25.48
16331;BME280;8275;48.206;16.340;2022-08-19T10:29:52;98603.66;;;37.42;25.66
16331;BME280;8275;48.206;16.340;2022-08-19T10:32:21;98618.06;;;37.39;25.82
16331;BME280;8275;48.206;16.340;2022-08-19T10:35:01;98632.16;;;37.29;25.78
16331;BME280;8275;48.206;16.340;2022-08-19T10:37:32;98633.72;;;37.18;26.29
16331;BME280;8275;48.206;16.340;2022-08-19T10:40:04;98649.72;;;36.99;26.53
16331;BME280;8275;48.206;16.340;2022-08-19T10:42:34;98667.53;;;36.87;26.82
16331;BME280;8275;48.206;16.340;2022-08-19T10:45:04;98673.25;;;36.71;26.67
16331;BME280;8275;48.206;16.340;2022-08-19T10:47:34;98659.25;;;36.60;26.71
16331;BME280;8275;48.206;16.340;2022-08-19T10:50:04;98639.97;;;36.48;26.97
16331;BME280;8275;48.206;16.340;2022-08-19T10:52:56;98625.69;;;36.32;28.10
16331;BME280;8275;48.206;16.340;2022-08-19T10:55:25;98620.91;;;36.10;28.23
16331;BME280;8275;48.206;16.340;2022-08-19T10:58:13;98626.00;;;35.82;28.61
16331;BME280;8275;48.206;16.340;2022-08-19T11:00:43;98633.38;;;35.60;28.81
16331;BME280;8275;48.206;16.340;2022-08-19T11:03:18;98646.84;;;35.37;28.74
16331;BME280;8275;48.206;16.340;2022-08-19T11:05:59;98667.25;;;35.12;28.85
16331;BME280;8275;48.206;16.340;2022-08-19T11:08:28;98659.66;;;35.05;29.02
16331;BME280;8275;48.206;16.340;2022-08-19T11:11:01;98655.69;;;34.99;30.12
16331;BME280;8275;48.206;16.340;2022-08-19T11:13:33;98631.41;;;34.91;30.73
16331;BME280;8275;48.206;16.340;2022-08-19T11:16:07;98631.31;;;34.75;30.75
16331;BME280;8275;48.206;16.340;2022-08-19T11:18:38;98631.16;;;34.59;30.68
16331;BME280;8275;48.206;16.340;2022-08-19T11:21:12;98617.53;;;34.47;30.37
16331;BME280;8275;48.206;16.340;2022-08-19T11:23:41;98614.75;;;34.43;29.65
16331;BME280;8275;48.206;16.340;2022-08-19T11:26:12;98618.03;;;34.42;30.08
16331;BME280;8275;48.206;16.340;2022-08-19T11:28:41;98615.56;;;34.44;29.59
16331;BME280;8275;48.206;16.340;2022-08-19T11:31:11;98612.59;;;34.51;29.96
16331;BME280;8275;48.206;16.340;2022-08-19T11:33:40;98613.25;;;34.62;30.10
16331;BME280;8275;48.206;16.340;2022-08-19T11:36:14;98612.44;;;34.85;29.80
16331;BME280;8275;48.206;16.340;2022-08-19T11:38:43;98615.75;;;35.26;29.75
16331;BME280;8275;48.206;16.340;2022-08-19T11:41:17;98602.59;;;35.71;29.38
16331;BME280;8275;48.206;16.340;2022-08-19T11:43:46;98601.31;;;36.12;28.58
16331;BME280;8275;48.206;16.340;2022-08-19T11:46:16;98586.22;;;36.47;28.08
16331;BME280;8275;48.206;16.340;2022-08-19T11:48:45;98585.22;;;36.70;27.78
16331;BME280;8275;48.206;16.340;2022-08-19T11:51:18;98588.69;;;36.77;27.31
16331;BME280;8275;48.206;16.340;2022-08-19T11:53:47;98580.19;;;36.90;26.92
16331;BME280;8275;48.206;16.340;2022-08-19T11:56:18;98572.00;;;37.37;26.44
16331;BME280;8275;48.206;16.340;2022-08-19T11:58:48;98582.53;;;38.06;26.20
16331;BME280;8275;48.206;16.340;2022-08-19T12:01:19;98593.88;;;38.73;25.42
16331;BME280;8275;48.206;16.340;2022-08-19T12:03:50;98587.47;;;39.37;24.14
16331;BME280;8275;48.206;16.340;2022-08-19T12:06:23;98595.97;;;39.93;23.65
16331;BME280;8275;48.206;16.340;2022-08-19T12:08:56;98578.59;;;40.18;23.37
16331;BME280;8275;48.206;16.340;2022-08-19T12:11:28;98573.50;;;40.13;22.99
16331;BME280;8275;48.206;16.340;2022-08-19T12:14:01;98582.91;;;39.92;22.51
16331;BME280;8275;48.206;16.340;2022-08-19T12:16:31;98588.03;;;39.66;22.39
16331;BME280;8275;48.206;16.340;2022-08-19T12:19:00;98581.38;;;39.35;22.48
16331;BME280;8275;48.206;16.340;2022-08-19T12:21:34;98572.69;;;39.04;22.67
16331;BME280;8275;48.206;16.340;2022-08-19T12:24:05;98582.13;;;38.92;23.15
16331;BME280;8275;48.206;16.340;2022-08-19T12:26:36;98585.66;;;38.96;22.82
16331;BME280;8275;48.206;16.340;2022-08-19T12:29:20;98592.22;;;39.53;23.05
16331;BME280;8275;48.206;16.340;2022-08-19T12:31:50;98589.41;;;40.14;22.94
16331;BME280;8275;48.206;16.340;2022-08-19T12:34:19;98583.50;;;40.48;22.25
16331;BME280;8275;48.206;16.340;2022-08-19T12:36:47;98602.06;;;40.56;22.21
16331;BME280;8275;48.206;16.340;2022-08-19T12:39:17;98596.06;;;40.42;22.35
16331;BME280;8275;48.206;16.340;2022-08-19T12:41:47;98610.13;;;40.09;22.41
16331;BME280;8275;48.206;16.340;2022-08-19T12:44:21;98618.97;;;39.71;22.46
16331;BME280;8275;48.206;16.340;2022-08-19T12:46:55;98629.78;;;39.33;23.17
16331;BME280;8275;48.206;16.340;2022-08-19T12:49:24;98636.53;;;38.92;22.89
16331;BME280;8275;48.206;16.340;2022-08-19T12:52:13;98660.16;;;38.46;23.25
16331;BME280;8275;48.206;16.340;2022-08-19T12:54:49;98659.75;;;38.06;23.45
16331;BME280;8275;48.206;16.340;2022-08-19T12:57:23;98650.28;;;37.68;23.55
16331;BME280;8275;48.206;16.340;2022-08-19T13:00:00;98644.28;;;37.34;24.53
16331;BME280;8275;48.206;16.340;2022-08-19T13:02:31;98632.41;;;37.06;24.96
16331;BME280;8275;48.206;16.340;2022-08-19T13:05:08;98623.66;;;36.81;25.12
16331;BME280;8275;48.206;16.340;2022-08-19T13:07:37;98626.59;;;36.61;25.15
16331;BME280;8275;48.206;16.340;2022-08-19T13:10:10;98616.94;;;36.39;25.71
16331;BME280;8275;48.206;16.340;2022-08-19T13:12:40;98625.13;;;36.21;25.46
16331;BME280;8275;48.206;16.340;2022-08-19T13:15:10;98601.47;;;36.05;25.81
16331;BME280;8275;48.206;16.340;2022-08-19T13:17:41;98599.78;;;35.87;25.92
16331;BME280;8275;48.206;16.340;2022-08-19T13:20:11;98584.72;;;35.71;25.98
16331;BME280;8275;48.206;16.340;2022-08-19T13:22:40;98597.19;;;35.57;26.24
16331;BME280;8275;48.206;16.340;2022-08-19T13:25:10;98598.28;;;35.44;26.37
16331;BME280;8275;48.206;16.340;2022-08-19T13:27:40;98595.75;;;35.30;27.02
16331;BME280;8275;48.206;16.340;2022-08-19T13:30:11;98595.56;;;35.17;26.43
16331;BME280;8275;48.206;16.340;2022-08-19T13:32:58;98622.66;;;35.05;26.59